createdAt,value
2023-07-24T00:00:41.681Z,97612.13
2023-07-24T00:03:29.844Z,97611.00
2023-07-24T00:06:01.049Z,97607.31
2023-07-24T00:08:29.184Z,97605.10
2023-07-24T00:10:57.201Z,97606.61
2023-07-24T00:13:25.356Z,97605.56
2023-07-24T00:15:53.415Z,97606.86
2023-07-24T00:18:21.593Z,97606.77
2023-07-24T00:20:49.758Z,97603.23
2023-07-24T00:23:18.165Z,97606.02
2023-07-24T00:25:46.315Z,97608.55
2023-07-24T00:28:14.214Z,97607.74
2023-07-24T00:30:43.665Z,97604.11
2023-07-24T00:33:12.766Z,97603.21
2023-07-24T00:35:40.866Z,97600.99
2023-07-24T00:38:09.743Z,97598.73
2023-07-24T00:40:37.636Z,97595.42
2023-07-24T00:43:06.910Z,97595.28
2023-07-24T00:45:37.567Z,97593.02
2023-07-24T00:48:06.523Z,97588.85
2023-07-24T00:50:36.350Z,97587.86
2023-07-24T00:53:05.735Z,97580.30
2023-07-24T00:55:33.998Z,97576.79
2023-07-24T00:58:04.317Z,97573.66
2023-07-24T01:00:33.033Z,97574.39
2023-07-24T01:03:01.571Z,97577.33
2023-07-24T01:05:30.996Z,97575.89
2023-07-24T01:07:59.091Z,97576.77
2023-07-24T01:10:27.479Z,97574.73
2023-07-24T01:13:20.136Z,97576.48
2023-07-24T01:16:14.420Z,97583.43
2023-07-24T01:18:45.636Z,97584.70
2023-07-24T01:21:18.131Z,97583.80
2023-07-24T01:24:16.302Z,97586.34
2023-07-24T01:26:45.185Z,97586.67
2023-07-24T01:29:13.148Z,97584.77
2023-07-24T01:31:41.171Z,97585.30
2023-07-24T01:34:09.192Z,97584.48
2023-07-24T01:36:37.637Z,97583.81
2023-07-24T01:39:06.571Z,97582.54
2023-07-24T01:41:34.565Z,97579.17
2023-07-24T01:44:02.758Z,97578.69
2023-07-24T01:46:30.930Z,97577.98
2023-07-24T01:48:59.638Z,97578.80
2023-07-24T01:51:27.830Z,97580.77
2023-07-24T01:53:55.861Z,97584.98
2023-07-24T01:56:23.959Z,97589.39
2023-07-24T01:58:52.068Z,97586.25
2023-07-24T02:01:20.239Z,97584.50
2023-07-24T02:03:48.279Z,97580.52
2023-07-24T02:06:16.364Z,97580.77
2023-07-24T02:08:49.859Z,97580.15
2023-07-24T02:11:18.556Z,97579.77
2023-07-24T02:13:46.681Z,97583.01
2023-07-24T02:16:15.979Z,97585.27
2023-07-24T02:18:44.507Z,97587.77
2023-07-24T02:21:12.518Z,97585.42
2023-07-24T02:23:40.660Z,97585.85
2023-07-24T02:26:08.673Z,97585.75
2023-07-24T02:28:36.690Z,97589.16
2023-07-24T02:31:04.582Z,97593.77
2023-07-24T02:33:32.920Z,97592.69
2023-07-24T02:36:02.312Z,97593.22
2023-07-24T02:38:30.385Z,97592.24
2023-07-24T02:40:58.463Z,97593.59
2023-07-24T02:43:26.841Z,97593.38
2023-07-24T02:45:54.748Z,97591.20
2023-07-24T02:48:24.940Z,97592.92
2023-07-24T02:50:53.859Z,97592.92
2023-07-24T02:53:21.806Z,97591.84
2023-07-24T02:55:49.732Z,97592.23
2023-07-24T02:58:17.788Z,97590.77
2023-07-24T03:00:45.818Z,97596.39
2023-07-24T03:03:13.921Z,97590.66
2023-07-24T03:05:41.899Z,97588.33
2023-07-24T03:08:09.806Z,97587.66
2023-07-24T03:10:41.856Z,97590.70
2023-07-24T03:13:09.811Z,97593.29
2023-07-24T03:15:37.890Z,97590.02
2023-07-24T03:18:06.230Z,97589.65
2023-07-24T03:20:34.352Z,97591.13
2023-07-24T03:23:02.259Z,97588.27
2023-07-24T03:25:32.697Z,97590.86
2023-07-24T03:28:00.746Z,97588.90
2023-07-24T03:30:28.864Z,97586.34
2023-07-24T03:32:57.964Z,97588.77
2023-07-24T03:35:26.000Z,97589.38
2023-07-24T03:37:53.988Z,97587.98
2023-07-24T03:40:22.054Z,97588.59
2023-07-24T03:42:50.191Z,97587.94
2023-07-24T03:45:18.206Z,97590.16
2023-07-24T03:47:46.292Z,97591.39
2023-07-24T03:50:14.469Z,97589.31
2023-07-24T03:52:42.626Z,97590.85
2023-07-24T03:55:11.814Z,97591.64
2023-07-24T03:57:39.953Z,97588.91
2023-07-24T04:00:08.838Z,97590.67
2023-07-24T04:02:42.990Z,97587.65
2023-07-24T04:05:11.235Z,97584.32
2023-07-24T04:07:39.391Z,97583.61
2023-07-24T04:10:08.404Z,97584.48
2023-07-24T04:12:36.704Z,97580.20
2023-07-24T04:15:05.328Z,97582.40
2023-07-24T04:17:33.848Z,97585.24
2023-07-24T04:20:02.043Z,97586.33
2023-07-24T04:22:30.090Z,97585.46
2023-07-24T04:24:58.043Z,97585.09
2023-07-24T04:27:26.007Z,97586.02
2023-07-24T04:29:53.989Z,97582.27
2023-07-24T04:32:22.212Z,97577.15
2023-07-24T04:34:50.366Z,97571.14
2023-07-24T04:37:18.389Z,97568.61
2023-07-24T04:39:46.371Z,97568.22
2023-07-24T04:42:14.335Z,97566.78
2023-07-24T04:44:42.319Z,97569.20
2023-07-24T04:47:10.992Z,97569.91
2023-07-24T04:49:39.169Z,97570.54
2023-07-24T04:52:07.140Z,97567.93
2023-07-24T04:54:35.213Z,97564.56
2023-07-24T04:57:03.278Z,97563.86
2023-07-24T04:59:31.354Z,97560.88
2023-07-24T05:01:59.485Z,97557.73
2023-07-24T05:04:27.559Z,97558.25
2023-07-24T05:06:55.592Z,97556.40
2023-07-24T05:09:23.659Z,97558.61
2023-07-24T05:11:51.690Z,97557.22
2023-07-24T05:14:19.606Z,97556.42
2023-07-24T05:16:47.721Z,97549.91
2023-07-24T05:19:15.882Z,97547.80
2023-07-24T05:21:43.984Z,97547.04
2023-07-24T05:24:11.997Z,97545.74
2023-07-24T05:26:40.139Z,97548.97
2023-07-24T05:29:08.211Z,97554.15
2023-07-24T05:31:37.490Z,97554.33
2023-07-24T05:34:06.292Z,97556.94
2023-07-24T05:36:34.232Z,97556.94
2023-07-24T05:39:02.223Z,97550.27
2023-07-24T05:41:30.236Z,97549.53
2023-07-24T05:43:58.548Z,97549.70
2023-07-24T05:46:26.769Z,97545.30
2023-07-24T05:48:55.250Z,97545.92
2023-07-24T05:51:23.653Z,97542.30
2023-07-24T05:53:51.769Z,97539.52
2023-07-24T05:56:20.011Z,97538.42
2023-07-24T05:58:48.179Z,97537.74
2023-07-24T06:01:16.187Z,97536.46
2023-07-24T06:03:44.277Z,97539.10
2023-07-24T06:06:12.293Z,97535.64
2023-07-24T06:08:40.277Z,97532.07
2023-07-24T06:11:08.444Z,97527.85
2023-07-24T06:13:36.427Z,97527.98
2023-07-24T06:16:04.617Z,97523.02
2023-07-24T06:18:32.690Z,97519.13
2023-07-24T06:21:00.617Z,97517.39
2023-07-24T06:23:28.730Z,97514.15
2023-07-24T06:25:56.702Z,97517.39
2023-07-24T06:28:24.687Z,97513.72
2023-07-24T06:30:55.820Z,97512.36
2023-07-24T06:33:23.798Z,97509.91
2023-07-24T06:35:52.155Z,97505.41
2023-07-24T06:38:22.471Z,97499.41
2023-07-24T06:40:50.506Z,97492.35
2023-07-24T06:43:19.149Z,97493.52
2023-07-24T06:45:47.227Z,97490.88
2023-07-24T06:48:15.359Z,97490.92
2023-07-24T06:50:43.402Z,97489.62
2023-07-24T06:53:11.273Z,97491.30
2023-07-24T06:55:39.161Z,97490.29
2023-07-24T06:58:07.078Z,97486.70
2023-07-24T07:00:35.110Z,97485.52
2023-07-24T07:03:03.098Z,97487.37
2023-07-24T07:05:33.317Z,97485.73
2023-07-24T07:08:01.559Z,97485.80
2023-07-24T07:10:29.736Z,97486.82
2023-07-24T07:12:57.583Z,97480.45
2023-07-24T07:15:25.515Z,97482.20
2023-07-24T07:17:53.659Z,97477.64
2023-07-24T07:20:21.652Z,97475.65
2023-07-24T07:22:51.086Z,97475.31
2023-07-24T07:25:19.469Z,97475.12
2023-07-24T07:27:47.416Z,97473.41
2023-07-24T07:30:15.332Z,97471.37
2023-07-24T07:32:43.386Z,97470.64
2023-07-24T07:35:11.625Z,97468.94
2023-07-24T07:37:39.675Z,97464.20
2023-07-24T07:40:08.407Z,97462.44
2023-07-24T07:42:38.213Z,97464.86
2023-07-24T07:45:07.886Z,97462.20
2023-07-24T07:47:35.922Z,97459.08
2023-07-24T07:50:04.747Z,97456.93
2023-07-24T07:52:32.960Z,97451.70
2023-07-24T07:55:01.090Z,97445.48
2023-07-24T07:57:29.537Z,97440.41
2023-07-24T07:59:57.724Z,97434.66
2023-07-24T08:02:25.812Z,97432.41
2023-07-24T08:04:54.035Z,97425.14
2023-07-24T08:07:22.195Z,97421.30
2023-07-24T08:09:50.278Z,97416.64
2023-07-24T08:12:18.286Z,97415.00
2023-07-24T08:14:46.272Z,97410.83
2023-07-24T08:17:14.490Z,97406.21
2023-07-24T08:19:42.856Z,97403.85
2023-07-24T08:22:11.922Z,97397.83
2023-07-24T08:24:40.138Z,97398.04
2023-07-24T08:27:08.109Z,97398.64
2023-07-24T08:29:37.072Z,97395.55
2023-07-24T08:32:06.659Z,97391.98
2023-07-24T08:34:36.519Z,97393.65
2023-07-24T08:37:05.358Z,97392.66
2023-07-24T08:39:33.430Z,97391.59
2023-07-24T08:42:08.730Z,97391.30
2023-07-24T08:44:38.342Z,97393.05
2023-07-24T08:47:10.600Z,97395.06
2023-07-24T08:49:43.589Z,97391.94
2023-07-24T08:52:23.170Z,97392.30
2023-07-24T08:55:02.712Z,97387.38
2023-07-24T08:57:30.781Z,97385.34
2023-07-24T08:59:59.785Z,97388.61
2023-07-24T09:02:27.811Z,97379.10
2023-07-24T09:04:56.004Z,97379.84
2023-07-24T09:07:24.058Z,97377.25
2023-07-24T09:09:52.071Z,97369.50
2023-07-24T09:12:20.192Z,97367.75
2023-07-24T09:14:48.295Z,97359.67
2023-07-24T09:17:16.397Z,97359.14
2023-07-24T09:19:45.152Z,97358.55
2023-07-24T09:22:17.701Z,97356.14
2023-07-24T09:24:55.380Z,97352.83
2023-07-24T09:27:29.787Z,97357.85
2023-07-24T09:29:58.076Z,97362.08
2023-07-24T09:32:28.463Z,97355.03
2023-07-24T09:34:56.604Z,97347.54
2023-07-24T09:37:26.351Z,97344.84
2023-07-24T09:39:54.768Z,97349.30
2023-07-24T09:42:30.458Z,97354.06
2023-07-24T09:44:58.717Z,97351.00
2023-07-24T09:47:51.953Z,97351.09
2023-07-24T09:50:14.923Z,97349.68
2023-07-24T09:52:43.374Z,97352.52
2023-07-24T09:55:31.698Z,97355.14
2023-07-24T09:58:01.655Z,97353.36
2023-07-24T10:00:32.221Z,97353.42
2023-07-24T10:03:01.182Z,97352.12
2023-07-24T10:05:30.642Z,97353.48
2023-07-24T10:07:59.793Z,97352.98
2023-07-24T10:10:30.456Z,97353.48
2023-07-24T10:12:59.367Z,97352.71
2023-07-24T10:15:27.704Z,97346.31
2023-07-24T10:18:06.219Z,97344.95
2023-07-24T10:20:36.453Z,97342.04
2023-07-24T10:23:05.016Z,97341.17
2023-07-24T10:25:35.292Z,97340.19
2023-07-24T10:28:08.971Z,97338.37
2023-07-24T10:30:38.193Z,97329.59
2023-07-24T10:33:09.549Z,97324.64
2023-07-24T10:35:47.229Z,97329.29
2023-07-24T10:38:17.400Z,97327.02
2023-07-24T10:40:52.530Z,97320.69
2023-07-24T10:43:25.703Z,97318.37
2023-07-24T10:45:55.636Z,97314.81
2023-07-24T10:48:27.149Z,97309.81
2023-07-24T10:50:55.594Z,97305.05
2023-07-24T10:53:24.417Z,97305.25
2023-07-24T10:55:53.311Z,97306.48
2023-07-24T10:58:26.383Z,97304.11
2023-07-24T11:00:54.830Z,97299.58
2023-07-24T11:03:23.291Z,97296.09
2023-07-24T11:05:51.320Z,97293.02
2023-07-24T11:08:21.451Z,97295.13
2023-07-24T11:10:51.356Z,97288.63
2023-07-24T11:13:21.131Z,97283.11
2023-07-24T11:15:50.347Z,97277.23
2023-07-24T11:18:21.676Z,97281.19
2023-07-24T11:20:55.377Z,97279.27
2023-07-24T11:23:26.620Z,97277.52
2023-07-24T11:25:55.694Z,97278.91
2023-07-24T11:28:23.780Z,97275.31
2023-07-24T11:30:52.871Z,97272.60
2023-07-24T11:33:22.459Z,97269.30
2023-07-24T11:35:50.465Z,97272.59
2023-07-24T11:38:18.406Z,97265.54
2023-07-24T11:40:46.540Z,97260.24
2023-07-24T11:43:22.792Z,97256.84
2023-07-24T11:45:53.389Z,97258.54
2023-07-24T11:48:24.349Z,97253.60
2023-07-24T11:50:56.616Z,97252.16
2023-07-24T11:53:31.991Z,97247.45
2023-07-24T11:56:02.242Z,97246.66
2023-07-24T11:58:31.102Z,97238.98
2023-07-24T12:00:59.252Z,97236.50
2023-07-24T12:03:29.821Z,97233.67
2023-07-24T12:05:58.216Z,97233.23
2023-07-24T12:08:34.904Z,97232.34
2023-07-24T12:11:03.639Z,97225.29
2023-07-24T12:13:33.369Z,97222.02
2023-07-24T12:16:01.505Z,97219.98
2023-07-24T12:18:29.564Z,97217.81
2023-07-24T12:20:57.527Z,97213.38
2023-07-24T12:23:25.722Z,97212.19
2023-07-24T12:25:53.942Z,97211.38
2023-07-24T12:28:22.070Z,97211.05
2023-07-24T12:30:50.335Z,97208.48
2023-07-24T12:33:18.911Z,97207.91
2023-07-24T12:35:46.918Z,97207.89
2023-07-24T12:38:15.609Z,97208.20
2023-07-24T12:40:43.791Z,97206.75
2023-07-24T12:43:12.087Z,97203.30
2023-07-24T12:45:40.320Z,97200.05
2023-07-24T12:48:08.407Z,97200.27
2023-07-24T12:50:36.473Z,97199.64
2023-07-24T12:53:05.897Z,97197.30
2023-07-24T12:55:38.324Z,97192.90
2023-07-24T12:58:06.403Z,97193.11
2023-07-24T13:00:34.525Z,97188.18
2023-07-24T13:03:02.690Z,97189.20
2023-07-24T13:05:32.074Z,97184.08
2023-07-24T13:08:00.323Z,97174.23
2023-07-24T13:10:28.234Z,97170.40
2023-07-24T13:12:56.853Z,97170.48
2023-07-24T13:15:25.278Z,97164.98
2023-07-24T13:17:53.359Z,97166.19
2023-07-24T13:20:21.513Z,97166.85
2023-07-24T13:22:49.981Z,97168.65
2023-07-24T13:25:18.280Z,97168.89
2023-07-24T13:27:46.362Z,97169.18
2023-07-24T13:30:14.314Z,97161.46
2023-07-24T13:32:42.700Z,97154.81
2023-07-24T13:35:10.646Z,97154.15
2023-07-24T13:37:38.741Z,97151.63
2023-07-24T13:40:07.473Z,97145.34
2023-07-24T13:42:35.693Z,97141.18
2023-07-24T13:45:04.367Z,97136.72
2023-07-24T13:47:32.417Z,97130.11
2023-07-24T13:50:02.569Z,97125.33
2023-07-24T13:52:31.085Z,97125.33
2023-07-24T13:54:59.053Z,97124.20
2023-07-24T13:57:27.459Z,97124.62
2023-07-24T13:59:55.616Z,97128.38
2023-07-24T14:02:23.509Z,97125.96
2023-07-24T14:04:51.763Z,97126.73
2023-07-24T14:07:19.908Z,97129.20
2023-07-24T14:09:47.838Z,97124.16
2023-07-24T14:12:16.112Z,97122.35
2023-07-24T14:14:44.531Z,97119.16
2023-07-24T14:17:12.766Z,97112.20
2023-07-24T14:19:40.678Z,97106.90
2023-07-24T14:22:08.575Z,97101.65
2023-07-24T14:24:36.693Z,97091.34
2023-07-24T14:27:05.104Z,97084.45
2023-07-24T14:29:33.222Z,97080.92
2023-07-24T14:32:01.338Z,97077.75
2023-07-24T14:34:29.368Z,97076.89
2023-07-24T14:36:58.325Z,97077.08
2023-07-24T14:39:26.838Z,97074.56
2023-07-24T14:41:55.057Z,97069.52
2023-07-24T14:44:23.189Z,97072.64
2023-07-24T14:46:51.291Z,97072.27
2023-07-24T14:49:19.222Z,97074.71
2023-07-24T14:51:47.308Z,97071.48
2023-07-24T14:54:15.417Z,97071.34
2023-07-24T14:56:53.854Z,97070.65
2023-07-24T14:59:27.474Z,97073.68
2023-07-24T15:01:55.705Z,97071.90
2023-07-24T15:04:24.353Z,97072.23
2023-07-24T15:06:52.974Z,97071.86
2023-07-24T15:09:20.936Z,97072.52
2023-07-24T15:11:48.997Z,97072.98
2023-07-24T15:14:17.278Z,97062.58
2023-07-24T15:16:46.591Z,97060.52
2023-07-24T15:19:14.605Z,97061.86
2023-07-24T15:21:42.678Z,97053.23
2023-07-24T15:24:11.753Z,97046.50
2023-07-24T15:26:39.767Z,97039.16
2023-07-24T15:29:07.780Z,97035.75
2023-07-24T15:31:38.132Z,97036.80
2023-07-24T15:34:06.821Z,97033.36
2023-07-24T15:36:38.513Z,97035.80
2023-07-24T15:39:06.939Z,97034.91
2023-07-24T15:41:35.621Z,97028.32
2023-07-24T15:44:03.683Z,97025.86
2023-07-24T15:46:33.222Z,97024.50
2023-07-24T15:49:01.572Z,97020.52
2023-07-24T15:51:31.119Z,97018.40
2023-07-24T15:53:59.430Z,97020.59
2023-07-24T15:56:27.440Z,97019.42
2023-07-24T15:58:56.132Z,97015.21
2023-07-24T16:01:24.503Z,97011.80
2023-07-24T16:03:52.609Z,97007.08
2023-07-24T16:06:20.640Z,97003.04
2023-07-24T16:08:48.706Z,97000.77
2023-07-24T16:11:16.915Z,97003.36
2023-07-24T16:13:45.151Z,97003.73
2023-07-24T16:16:15.244Z,97003.53
2023-07-24T16:18:44.687Z,97006.06
2023-07-24T16:21:12.761Z,97007.36
2023-07-24T16:23:40.820Z,97002.82
2023-07-24T16:26:08.717Z,97001.84
2023-07-24T16:28:36.914Z,96994.34
2023-07-24T16:31:04.885Z,96995.67
2023-07-24T16:33:33.074Z,96990.02
2023-07-24T16:36:01.179Z,96983.00
2023-07-24T16:38:29.102Z,96983.44
2023-07-24T16:40:57.271Z,96980.15
2023-07-24T16:43:25.515Z,96979.35
2023-07-24T16:48:24.726Z,96984.05
2023-07-24T16:50:53.060Z,96982.67
2023-07-24T16:53:21.035Z,96979.51
2023-07-24T16:55:49.143Z,96979.98
2023-07-24T16:58:17.773Z,96980.75
2023-07-24T17:00:46.316Z,96978.63
2023-07-24T17:03:14.579Z,96967.02
2023-07-24T17:05:42.742Z,96960.90
2023-07-24T17:08:10.692Z,96958.07
2023-07-24T17:10:50.063Z,96959.90
2023-07-24T17:13:18.094Z,96959.15
2023-07-24T17:15:46.489Z,96949.95
2023-07-24T17:18:14.468Z,96947.80
2023-07-24T17:20:42.413Z,96947.32
2023-07-24T17:23:10.452Z,96944.38
2023-07-24T17:25:40.842Z,96946.58
2023-07-24T17:28:09.082Z,96948.65
2023-07-24T17:30:37.953Z,96946.70
2023-07-24T17:33:06.119Z,96946.52
2023-07-24T17:35:34.500Z,96948.30
2023-07-24T17:38:02.556Z,96948.44
2023-07-24T17:40:30.610Z,96947.26
2023-07-24T17:42:58.557Z,96944.77
2023-07-24T17:45:26.832Z,96940.28
2023-07-24T17:47:54.911Z,96932.02
2023-07-24T17:50:24.339Z,96925.20
2023-07-24T17:52:52.505Z,96926.92
2023-07-24T17:55:20.620Z,96928.41
2023-07-24T17:57:50.987Z,96923.41
2023-07-24T18:00:20.139Z,96917.86
2023-07-24T18:02:48.406Z,96912.42
2023-07-24T18:05:16.405Z,96912.55
2023-07-24T18:07:44.445Z,96918.89
2023-07-24T18:10:12.677Z,96920.48
2023-07-24T18:12:41.434Z,96922.36
2023-07-24T18:15:10.050Z,96924.38
2023-07-24T18:17:38.355Z,96925.90
2023-07-24T18:20:07.607Z,96915.30
2023-07-24T18:22:36.825Z,96908.23
2023-07-24T18:25:05.381Z,96913.98
2023-07-24T18:27:34.789Z,96915.66
2023-07-24T18:30:02.985Z,96910.52
2023-07-24T18:32:30.977Z,96901.23
2023-07-24T18:34:59.059Z,96903.31
2023-07-24T18:37:26.997Z,96907.42
2023-07-24T18:39:54.910Z,96913.26
2023-07-24T18:42:22.987Z,96916.91
2023-07-24T18:44:51.166Z,96919.51
2023-07-24T18:47:21.050Z,96916.05
2023-07-24T18:49:49.171Z,96919.56
2023-07-24T18:52:17.206Z,96921.31
2023-07-24T18:54:45.137Z,96922.52
2023-07-24T18:57:13.008Z,96922.34
2023-07-24T18:59:41.269Z,96923.73
2023-07-24T19:02:10.039Z,96925.08
2023-07-24T19:04:38.620Z,96927.60
2023-07-24T19:07:06.722Z,96930.08
2023-07-24T19:09:34.808Z,96933.79
2023-07-24T19:12:03.020Z,96936.42
2023-07-24T19:14:31.007Z,96939.89
2023-07-24T19:16:59.125Z,96940.33
2023-07-24T19:19:27.279Z,96940.80
2023-07-24T19:21:55.367Z,96933.00
2023-07-24T19:24:23.416Z,96928.58
2023-07-24T19:26:51.462Z,96931.33
2023-07-24T19:29:19.642Z,96932.91
2023-07-24T19:31:48.428Z,96933.70
2023-07-24T19:34:16.636Z,96936.02
2023-07-24T19:36:44.710Z,96937.41
2023-07-24T19:39:12.721Z,96936.85
2023-07-24T19:41:40.647Z,96943.48
2023-07-24T19:44:08.799Z,96942.52
2023-07-24T19:46:36.863Z,96940.02
2023-07-24T19:49:04.905Z,96937.75
2023-07-24T19:51:33.187Z,96938.79
2023-07-24T19:54:01.524Z,96942.06
2023-07-24T19:56:29.615Z,96949.98
2023-07-24T19:58:57.520Z,96949.71
2023-07-24T20:01:27.180Z,96946.88
2023-07-24T20:03:55.425Z,96941.10
2023-07-24T20:06:23.610Z,96936.11
2023-07-24T20:08:51.812Z,96932.27
2023-07-24T20:11:19.914Z,96931.45
2023-07-24T20:13:47.860Z,96925.55
2023-07-24T20:16:20.273Z,96920.60
2023-07-24T20:18:48.523Z,96913.52
2023-07-24T20:21:16.525Z,96906.70
2023-07-24T20:23:44.453Z,96896.74
2023-07-24T20:26:12.451Z,96893.98
2023-07-24T20:28:40.516Z,96895.27
2023-07-24T20:31:08.863Z,96895.48
2023-07-24T20:33:36.839Z,96907.52
2023-07-24T20:36:09.650Z,96915.45
2023-07-24T20:38:38.361Z,96916.55
2023-07-24T20:41:06.441Z,96914.52
2023-07-24T20:43:34.458Z,96912.58
2023-07-24T20:46:12.864Z,96917.16
2023-07-24T20:48:41.766Z,96912.02
2023-07-24T20:51:17.857Z,96906.62
2023-07-24T20:53:46.282Z,96896.29
2023-07-24T20:56:14.791Z,96900.20
2023-07-24T20:58:43.051Z,96895.17
2023-07-24T21:01:11.092Z,96878.56
2023-07-24T21:03:40.176Z,96869.73
2023-07-24T21:06:08.250Z,96866.20
2023-07-24T21:08:38.270Z,96859.77
2023-07-24T21:11:06.857Z,96856.52
2023-07-24T21:13:35.088Z,96853.02
2023-07-24T21:16:06.267Z,96852.13
2023-07-24T21:18:35.301Z,96855.65
2023-07-24T21:21:07.125Z,96859.78
2023-07-24T21:23:36.940Z,96860.73
2023-07-24T21:26:04.923Z,96862.16
2023-07-24T21:31:31.521Z,96847.71
2023-07-24T21:34:02.145Z,96858.46
2023-07-24T21:36:30.260Z,96859.11
2023-07-24T21:38:58.167Z,96859.31
2023-07-24T21:41:28.222Z,96865.56
2023-07-24T21:43:57.917Z,96869.97
2023-07-24T21:46:29.627Z,96873.16
2023-07-24T21:48:58.040Z,96877.84
2023-07-24T21:51:29.319Z,96875.33
2023-07-24T21:53:57.594Z,96880.66
2023-07-24T21:56:25.603Z,96878.96
2023-07-24T21:58:53.699Z,96873.54
2023-07-24T22:01:22.218Z,96872.58
2023-07-24T22:03:50.189Z,96876.72
2023-07-24T22:06:18.445Z,96883.45
2023-07-24T22:08:46.613Z,96887.16
2023-07-24T22:11:16.028Z,96881.27
2023-07-24T22:13:44.708Z,96880.86
2023-07-24T22:16:12.992Z,96873.59
2023-07-24T22:18:41.185Z,96876.73
2023-07-24T22:21:09.122Z,96871.05
2023-07-24T22:23:37.196Z,96862.11
2023-07-24T22:26:05.207Z,96861.65
2023-07-24T22:28:33.363Z,96861.09
2023-07-24T22:31:08.343Z,96861.74
2023-07-24T22:33:36.687Z,96849.34
2023-07-24T22:36:05.580Z,96842.67
2023-07-24T22:38:33.602Z,96841.89
2023-07-24T22:41:10.190Z,96841.45
2023-07-24T22:43:38.263Z,96844.95
2023-07-24T22:46:06.863Z,96832.08
2023-07-24T22:48:37.734Z,96846.98
2023-07-24T22:51:07.909Z,96844.30
2023-07-24T22:53:38.101Z,96838.95
2023-07-24T22:56:10.043Z,96840.91
2023-07-24T22:58:58.183Z,96832.89
2023-07-24T23:01:28.040Z,96829.98
2023-07-24T23:03:56.186Z,96826.74
2023-07-24T23:06:24.984Z,96830.80
2023-07-24T23:08:52.956Z,96837.20
2023-07-24T23:11:23.525Z,96833.91
2023-07-24T23:13:51.482Z,96837.90
2023-07-24T23:16:19.672Z,96840.08
2023-07-24T23:18:47.957Z,96832.84
2023-07-24T23:21:16.096Z,96841.67
2023-07-24T23:23:44.268Z,96837.94
2023-07-24T23:26:12.265Z,96837.25
2023-07-24T23:28:40.920Z,96836.13
2023-07-24T23:31:09.327Z,96834.94
2023-07-24T23:33:38.687Z,96830.36
2023-07-24T23:36:10.357Z,96836.13
2023-07-24T23:38:38.442Z,96834.37
2023-07-24T23:41:10.342Z,96829.40
2023-07-24T23:43:38.176Z,96817.81
2023-07-24T23:46:17.196Z,96810.77
2023-07-24T23:48:45.468Z,96806.22
2023-07-24T23:51:15.662Z,96803.89
2023-07-24T23:53:43.985Z,96802.35
2023-07-24T23:56:12.239Z,96811.23
2023-07-24T23:58:40.728Z,96804.13
